Wetterdaten: Juli 2008
Datum Temp Feuchte Luftdruck Regen Wind Richtung Sonnenschein UV Solar Windben
01.07.2008 21,0 C 55 % 1016,0 hPa 0,0 l/m 2,2 km/h SO 12,92 h 4,3 UV-I 483 W/m 6,4 km/h
02.07.2008 24,2 C 56 % 1009,5 hPa 0,0 l/m 3,9 km/h SO 11,52 h 3,9 UV-I 453 W/m 8,4 km/h
03.07.2008 18,4 C 84 % 1009,3 hPa 8,4 l/m 3,2 km/h NW 5,42 h 2,6 UV-I 271 W/m 9,7 km/h
04.07.2008 14,8 C 86 % 1014,9 hPa 2,2 l/m 4,7 km/h NW 5,00 h 2,7 UV-I 319 W/m 13,7 km/h
05.07.2008 17,0 C 74 % 1013,9 hPa 0,0 l/m 1,3 km/h NW 11,58 h 3,8 UV-I 462 W/m 2,8 km/h
06.07.2008 18,1 C 71 % 1006,6 hPa 0,0 l/m 4,4 km/h S-SW 5,08 h 2,3 UV-I 281 W/m 9,7 km/h
07.07.2008 15,7 C 71 % 1004,5 hPa 1,0 l/m 13,5 km/h S 4,33 h 2,6 UV-I 280 W/m 25,0 km/h
08.07.2008 13,3 C 81 % 1009,2 hPa 9,2 l/m 7,8 km/h S 2,58 h 2,2 UV-I 228 W/m 18,1 km/h
09.07.2008 14,4 C 81 % 1014,2 hPa 4,4 l/m 9,1 km/h S 1,17 h 2,1 UV-I 212 W/m 13,3 km/h
10.07.2008 18,5 C 85 % 1010,2 hPa 5,4 l/m 3,9 km/h S 3,08 h 2,5 UV-I 256 W/m 8,1 km/h
11.07.2008 16,0 C 88 % 1007,2 hPa 3,6 l/m 4,9 km/h S 1,67 h 1,4 UV-I 142 W/m 10,5 km/h
12.07.2008 14,6 C 79 % 1009,1 hPa 0,2 l/m 5,5 km/h S 4,25 h 2,5 UV-I 274 W/m 10,1 km/h
13.07.2008 15,0 C 70 % 1013,9 hPa 0,0 l/m 2,7 km/h NW 8,00 h 3,2 UV-I 407 W/m 6,8 km/h
14.07.2008 15,3 C 74 % 1022,4 hPa 0,0 l/m 3,9 km/h NW 4,17 h 2,7 UV-I 290 W/m 7,6 km/h
15.07.2008 18,7 C 67 % 1024,0 hPa 0,0 l/m 9,2 km/h S 8,50 h 4,0 UV-I 426 W/m 19,7 km/h
16.07.2008 14,0 C 87 % 1017,2 hPa 8,2 l/m 2,9 km/h S-SW 1,58 h 1,1 UV-I 113 W/m 8,4 km/h
17.07.2008 12,3 C 89 % 1013,7 hPa 3,8 l/m 8,7 km/h S 0,83 h 1,5 UV-I 156 W/m 16,1 km/h
18.07.2008 13,0 C 92 % 1011,6 hPa 1,2 l/m 4,7 km/h S 0,42 h 1,3 UV-I 134 W/m 9,7 km/h
19.07.2008 14,6 C 86 % 1008,0 hPa 11,8 l/m 7,7 km/h S 2,50 h 2,4 UV-I 202 W/m 13,3 km/h
20.07.2008 12,3 C 90 % 1012,4 hPa 3,4 l/m 6,4 km/h S 2,73 h 2,1 UV-I 218 W/m 17,3 km/h
21.07.2008 11,1 C 94 % 1014,5 hPa 12,4 l/m 11,0 km/h S 0,00 h 1,0 UV-I 92 W/m 13,7 km/h
22.07.2008 13,1 C 90 % 1022,3 hPa 0,4 l/m 3,2 km/h NW 0,67 h 1,5 UV-I 143 W/m 8,0 km/h
23.07.2008 14,9 C 82 % 1024,7 hPa 0,0 l/m 0,4 km/h N-NO 6,25 h 2,8 UV-I 341 W/m 1,6 km/h
24.07.2008 19,2 C 60 % 1019,8 hPa 0,0 l/m 2,4 km/h O 12,08 h 3,5 UV-I 470 W/m 8,0 km/h
25.07.2008 22,1 C 68 % 1013,8 hPa 0,0 l/m 4,3 km/h SO 6,75 h 2,7 UV-I 336 W/m 9,6 km/h
26.07.2008 22,5 C 72 % 1013,9 hPa 0,0 l/m 4,0 km/h SO 10,17 h 3,3 UV-I 406 W/m 8,4 km/h
27.07.2008 23,3 C 64 % 1016,4 hPa 0,0 l/m 2,1 km/h SO 11,33 h 3,3 UV-I 417 W/m 5,6 km/h
28.07.2008 24,0 C 50 % 1014,9 hPa 0,0 l/m 4,7 km/h SO 12,67 h 3,5 UV-I 467 W/m 10,4 km/h
29.07.2008 22,2 C 72 % 1015,3 hPa 3,4 l/m 6,9 km/h SO 6,58 h 3,1 UV-I 269 W/m 10,9 km/h
30.07.2008 21,7 C 78 % 1018,6 hPa 0,0 l/m 2,1 km/h N-NO 7,75 h 3,2 UV-I 373 W/m 6,4 km/h
31.07.2008 24,4 C 58 % 1014,8 hPa 0,0 l/m 7,0 km/h SO 10,42 h 3,1 UV-I 416 W/m 16,9 km/h
Min-Datum 14.07.08 28.07.08 07.07.08 16 Tage 01.07.08 - - - - 01.07.08
Min-Zeit 04:25 16:30 14:30 - 00:00 - - - - 00:00
Minimum 7,3 C 32 % 1003,8 hPa - 0,0 km/h - - - - 0,0 km/h
Max-Datum 02.07.08 05.07.08 23.07.08 21.07.08 25.07.08 - 01.07.08 01.07.08 23.07.08 08.07.08
Max-Zeit 15:04 03:25 11:20 21:10 15:10 - 20:10 13:10 13:19 18:30
Maximum 30,6 C 100 % 1026,3 hPa 12,4 l/m 29,9 km/h
SO
- 12,90 h 8,0 UV-I 1204 W/m 56,3 km/h
S
Durchschnitt 17,4 C 76 % 1014,1 hPa #79,0 l/m 5,1 km/h S #182:00 h 2,6 UV-I 301 W/m 10,8 km/h

Durchschnitt Minimum Temp.12,3 C
Durchschnitt Maximum Temp.22,5 C